Terminal Aerodrome Forecast
Issued by NWS

Home | Current Version | Previous Version | Text Only | Print | Product List | Glossary On
Versions: 1 2 3 4 5 6 7 8 9 10 11 12 13 14 15 16 17 18 19 20 21 22
752
FTUS43 KABR 171728 AAA
TAFMBG
TAF AMD
KMBG 171728Z 1717/1818 19004KT P6SM FEW120
     FM180200 19008KT P6SM FEW250
     FM180900 24007KT P6SM BKN250
     FM181600 23011G20KT P6SM BKN150=

USA.gov is the U.S. government's official web portal to all federal, state and local government web resources and services.